Huvudsida
METAR-TAF:

METAR-TAF

Flygplatser :

Kiruna Airport

Kiruna, Sverige

latitud: 67-49N, longitud: 020-20E, höjd: 452 m

Aktuellt väderrapport

Denna rapport gjordes för 15 minuter sedan, klockan 05:50 UTC
Vind 13 kt från syd/sydväst
Temperatur 3°C
Fuktighet 87%
Tryck 1015 hPa
Sikt 10 km eller mer
Inga moln under 1 500 m eller inga cumulonimbus

METAR: ESNQ 160550Z 21013KT CAVOK 03/01 Q1015

Tid: 07:05 (06:05 UTC)

Väderprognos

Denna rapport gjordes för 35 minuter sedan, klockan 05:30 UTC
Prognos gäller från 16 kl. 06 UTC till 16 kl. 15 UTC
Vind 12 kt från syd/sydväst
Sikt 10 km eller mer
Inga moln under 1 500 m eller inga cumulonimbus

TAF: ESNQ 160530Z 1606/1615 21012KT CAVOK

Aktuella väderrapporter och prognoser från 4000 flygplatser (METAR- och TAF-rapporter).

De tillgängliga stationerna syns som gula och röda prickar på kartan.

För musen över prickarna för att se namnen på stationerna.

Klicka sedan för att få väderrapporter och prognoser.

För att ändra kartan: Klicka på de gröna knapparna med ett svart kors på för att zooma in; den gröna knappen med ett streck på för att zooma ut; eller på de gröna pilarna för angränsande kartor.


METAR-TAF: